createdAt,value
2023-02-04T00:01:49.190Z,4.10
2023-02-04T00:04:21.934Z,3.87
2023-02-04T00:06:52.109Z,3.77
2023-02-04T00:09:22.420Z,3.30
2023-02-04T00:11:52.592Z,4.07
2023-02-04T00:14:22.902Z,4.33
2023-02-04T00:16:53.135Z,3.73
2023-02-04T00:19:23.403Z,4.17
2023-02-04T00:21:56.579Z,3.30
2023-02-04T00:24:26.369Z,3.33
2023-02-04T00:26:56.756Z,3.07
2023-02-04T00:29:26.570Z,3.03
2023-02-04T00:31:57.255Z,3.77
2023-02-04T00:34:26.959Z,3.40
2023-02-04T00:36:57.475Z,4.20
2023-02-04T00:39:27.407Z,3.40
2023-02-04T00:41:58.178Z,3.00
2023-02-04T00:44:28.208Z,2.90
2023-02-04T00:46:58.865Z,4.07
2023-02-04T00:49:33.769Z,3.87
2023-02-04T00:52:03.121Z,3.27
2023-02-04T00:54:33.011Z,3.83
2023-02-04T00:57:03.214Z,3.77
2023-02-04T00:59:33.499Z,3.83
2023-02-04T01:02:04.109Z,3.30
2023-02-04T01:04:34.412Z,3.03
2023-02-04T01:07:09.430Z,2.30
2023-02-04T01:09:39.342Z,2.50
2023-02-04T01:12:09.932Z,2.33
2023-02-04T01:14:40.214Z,1.93
2023-02-04T01:17:10.599Z,2.60
2023-02-04T01:19:40.989Z,2.57
2023-02-04T01:22:11.521Z,2.73
2023-02-04T01:24:45.072Z,2.47
2023-02-04T01:27:15.610Z,2.57
2023-02-04T01:29:45.735Z,2.87
2023-02-04T01:32:15.942Z,2.60
2023-02-04T01:34:46.700Z,2.47
2023-02-04T01:37:17.195Z,2.87
2023-02-04T01:39:47.580Z,2.40
2023-02-04T01:42:21.403Z,2.67
2023-02-04T01:44:52.171Z,2.90
2023-02-04T01:47:22.953Z,2.63
2023-02-04T01:49:54.004Z,2.53
2023-02-04T01:52:22.921Z,2.90
2023-02-04T01:54:52.876Z,2.60
2023-02-04T01:57:22.949Z,2.67
2023-02-04T01:59:55.885Z,2.70
2023-02-04T02:02:46.478Z,2.70
2023-02-04T02:05:20.657Z,3.10
2023-02-04T02:07:53.619Z,2.20
2023-02-04T02:10:20.035Z,3.43
2023-02-04T02:12:46.680Z,2.90
2023-02-04T02:15:13.545Z,3.57
2023-02-04T02:17:44.846Z,2.93
2023-02-04T02:20:13.552Z,3.73
2023-02-04T02:23:07.097Z,2.97
2023-02-04T02:25:37.666Z,4.07
2023-02-04T02:28:07.049Z,3.30
2023-02-04T02:30:33.743Z,3.90
2023-02-04T02:33:05.422Z,3.40
2023-02-04T02:35:33.851Z,3.70
2023-02-04T02:38:00.179Z,3.53
2023-02-04T02:40:26.455Z,3.10
2023-02-04T02:42:57.832Z,3.50
2023-02-04T02:45:29.896Z,3.63
2023-02-04T02:47:58.580Z,3.37
2023-02-04T02:50:27.185Z,4.07
2023-02-04T02:52:54.818Z,3.80
2023-02-04T02:55:23.772Z,3.83
2023-02-04T02:57:51.096Z,3.17
2023-02-04T03:00:23.288Z,3.00
2023-02-04T03:03:21.555Z,3.10
2023-02-04T03:05:49.858Z,3.57
2023-02-04T03:08:20.303Z,3.87
2023-02-04T03:10:47.057Z,3.60
2023-02-04T03:13:14.289Z,3.40
2023-02-04T03:15:41.855Z,3.80
2023-02-04T03:18:14.917Z,1.83
2023-02-04T03:20:41.752Z,1.70
2023-02-04T03:23:08.283Z,1.80
2023-02-04T03:25:34.452Z,1.93
2023-02-04T03:28:04.651Z,1.67
2023-02-04T03:30:33.784Z,2.30
2023-02-04T03:33:04.417Z,2.40
2023-02-04T03:35:35.850Z,1.67
2023-02-04T03:38:06.346Z,3.10
2023-02-04T03:40:36.009Z,2.40
2023-02-04T03:43:06.444Z,3.40
2023-02-04T03:45:45.243Z,2.70
2023-02-04T03:48:12.127Z,3.00
2023-02-04T03:50:38.925Z,2.30
2023-02-04T03:53:10.350Z,2.87
2023-02-04T03:55:40.341Z,2.60
2023-02-04T03:58:11.103Z,3.17
2023-02-04T04:00:41.606Z,3.27
2023-02-04T04:03:13.860Z,2.70
2023-02-04T04:05:44.322Z,2.40
2023-02-04T04:08:14.880Z,3.00
2023-02-04T04:10:45.480Z,2.90
2023-02-04T04:13:15.854Z,3.03
2023-02-04T04:15:46.446Z,3.00
2023-02-04T04:18:16.904Z,3.30
2023-02-04T04:20:49.092Z,2.70
2023-02-04T04:23:19.224Z,3.00
2023-02-04T04:25:49.097Z,3.40
2023-02-04T04:28:19.526Z,2.43
2023-02-04T04:30:49.693Z,2.83
2023-02-04T04:33:19.941Z,3.63
2023-02-04T04:35:50.033Z,3.10
2023-02-04T04:38:23.609Z,4.80
2023-02-04T04:40:53.589Z,3.03
2023-02-04T04:43:24.381Z,2.50
2023-02-04T04:45:54.830Z,3.03
2023-02-04T04:48:24.976Z,2.77
2023-02-04T04:50:55.369Z,3.23
2023-02-04T04:53:25.677Z,3.37
2023-02-04T04:55:59.257Z,2.27
2023-02-04T04:58:29.485Z,3.00
2023-02-04T05:00:59.637Z,2.50
2023-02-04T05:03:30.074Z,2.57
2023-02-04T05:06:00.440Z,3.27
2023-02-04T05:08:30.818Z,2.33
2023-02-04T05:11:01.923Z,2.40
2023-02-04T05:13:36.343Z,1.83
2023-02-04T05:16:06.779Z,1.80
2023-02-04T05:18:37.540Z,2.33
2023-02-04T05:21:07.690Z,1.60
2023-02-04T05:23:37.700Z,1.90
2023-02-04T05:26:08.669Z,1.87
2023-02-04T05:28:38.916Z,2.03
2023-02-04T05:31:13.618Z,4.43
2023-02-04T05:33:44.167Z,1.80
2023-02-04T05:36:14.496Z,1.90
2023-02-04T05:38:44.707Z,1.97
2023-02-04T05:41:14.506Z,1.90
2023-02-04T05:43:45.066Z,1.60
2023-02-04T05:46:15.538Z,1.47
2023-02-04T05:48:50.367Z,1.00
2023-02-04T05:51:21.778Z,0.70
2023-02-04T05:53:52.183Z,0.60
2023-02-04T05:56:28.071Z,0.60
2023-02-04T05:58:59.274Z,0.50
2023-02-04T06:01:30.456Z,0.60
2023-02-04T06:04:00.685Z,0.87
2023-02-04T06:06:31.124Z,0.50
2023-02-04T06:09:02.196Z,0.50
2023-02-04T06:11:32.022Z,0.60
2023-02-04T06:14:04.314Z,0.50
2023-02-04T06:16:35.114Z,0.40
2023-02-04T06:19:05.429Z,0.50
2023-02-04T06:21:37.999Z,0.50
2023-02-04T06:24:09.618Z,0.50
2023-02-04T06:26:40.385Z,0.50
2023-02-04T06:29:10.754Z,0.50
2023-02-04T06:31:41.748Z,0.40
2023-02-04T06:34:11.495Z,0.50
2023-02-04T06:36:41.569Z,0.50
2023-02-04T06:39:15.626Z,0.80
2023-02-04T06:41:47.004Z,0.60
2023-02-04T06:44:17.473Z,0.57
2023-02-04T06:46:47.369Z,0.70
2023-02-04T06:49:17.683Z,0.70
2023-02-04T06:51:48.784Z,0.80
2023-02-04T06:54:18.575Z,0.70
2023-02-04T06:56:52.572Z,1.00
2023-02-04T06:59:24.671Z,1.00
2023-02-04T07:01:53.071Z,0.70
2023-02-04T07:04:23.281Z,0.77
2023-02-04T07:06:54.047Z,0.73
2023-02-04T07:09:23.595Z,0.70
2023-02-04T07:11:53.905Z,0.87
2023-02-04T07:14:27.178Z,0.90
2023-02-04T07:16:58.314Z,0.93
2023-02-04T07:19:28.685Z,0.70
2023-02-04T07:21:59.132Z,0.87
2023-02-04T07:24:29.556Z,0.90
2023-02-04T07:27:02.442Z,0.90
2023-02-04T07:29:30.499Z,0.90
2023-02-04T07:32:06.797Z,0.70
2023-02-04T07:34:36.916Z,0.90
2023-02-04T07:37:06.745Z,1.10
2023-02-04T07:39:36.826Z,1.33
2023-02-04T07:42:06.627Z,1.00
2023-02-04T07:44:37.987Z,0.90
2023-02-04T07:47:07.200Z,1.10
2023-02-04T07:49:41.545Z,2.03
2023-02-04T07:52:11.796Z,1.17
2023-02-04T07:54:42.227Z,1.33
2023-02-04T07:57:15.209Z,1.40
2023-02-04T07:59:46.259Z,1.50
2023-02-04T08:02:16.382Z,1.33
2023-02-04T08:04:47.381Z,1.23
2023-02-04T08:07:17.898Z,1.37
2023-02-04T08:09:47.817Z,1.57
2023-02-04T08:12:18.464Z,1.30
2023-02-04T08:14:52.122Z,1.30
2023-02-04T08:17:22.956Z,1.53
2023-02-04T08:19:53.529Z,1.50
2023-02-04T08:22:23.790Z,1.50
2023-02-04T08:24:54.432Z,1.50
2023-02-04T08:27:24.419Z,1.70
2023-02-04T08:29:54.685Z,1.77
2023-02-04T08:32:28.481Z,1.90
2023-02-04T08:34:57.960Z,1.60
2023-02-04T08:37:27.465Z,1.70
2023-02-04T08:39:58.061Z,1.40
2023-02-04T08:42:28.684Z,1.17
2023-02-04T08:44:58.836Z,1.43
2023-02-04T08:47:29.010Z,1.30
2023-02-04T08:49:58.722Z,1.40
2023-02-04T08:52:28.633Z,1.77
2023-02-04T08:54:58.659Z,1.43
2023-02-04T08:57:28.642Z,0.90
2023-02-04T09:00:02.421Z,1.57
2023-02-04T09:02:31.813Z,1.60
2023-02-04T09:05:02.813Z,1.30
2023-02-04T09:07:33.163Z,1.10
2023-02-04T09:10:04.005Z,1.70
2023-02-04T09:12:33.838Z,1.50
2023-02-04T09:15:04.765Z,1.40
2023-02-04T09:17:39.739Z,1.23
2023-02-04T09:20:10.100Z,1.10
2023-02-04T09:22:39.675Z,1.10
2023-02-04T09:25:09.888Z,0.83
2023-02-04T09:27:39.658Z,1.10
2023-02-04T09:30:10.754Z,1.30
2023-02-04T09:32:40.834Z,1.40
2023-02-04T09:35:15.062Z,1.30
2023-02-04T09:37:45.527Z,1.23
2023-02-04T09:40:17.366Z,1.20
2023-02-04T09:42:50.392Z,1.47
2023-02-04T09:45:19.712Z,1.10
2023-02-04T09:47:48.527Z,1.03
2023-02-04T09:50:20.828Z,1.23
2023-02-04T09:52:51.022Z,1.00
2023-02-04T09:55:21.260Z,1.47
2023-02-04T09:57:49.892Z,1.20
2023-02-04T10:00:22.701Z,1.17
2023-02-04T10:02:50.382Z,1.67
2023-02-04T10:05:29.884Z,1.40
2023-02-04T10:07:56.371Z,1.30
2023-02-04T10:10:27.026Z,1.50
2023-02-04T10:13:01.445Z,1.70
2023-02-04T10:15:29.065Z,1.80
2023-02-04T10:18:06.599Z,1.80
2023-02-04T10:20:33.242Z,1.43
2023-02-04T10:23:01.353Z,1.30
2023-02-04T10:25:32.090Z,1.43
2023-02-04T10:28:06.997Z,1.50
2023-02-04T10:30:42.915Z,2.60
2023-02-04T10:33:24.022Z,2.17
2023-02-04T10:35:56.467Z,1.53
2023-02-04T10:38:23.542Z,1.60
2023-02-04T10:41:05.370Z,1.70
2023-02-04T10:43:35.935Z,1.60
2023-02-04T10:46:02.989Z,1.40
2023-02-04T10:48:30.307Z,1.60
2023-02-04T10:50:58.305Z,1.83
2023-02-04T10:53:47.648Z,1.77
2023-02-04T10:56:20.000Z,1.93
2023-02-04T10:58:53.669Z,1.30
2023-02-04T11:01:26.159Z,1.20
2023-02-04T11:03:53.498Z,1.23
2023-02-04T11:06:23.788Z,1.40
2023-02-04T11:08:54.679Z,1.67
2023-02-04T11:11:25.737Z,1.60
2023-02-04T11:13:51.885Z,1.47
2023-02-04T11:16:18.096Z,1.67
2023-02-04T11:18:54.891Z,1.60
2023-02-04T11:21:34.018Z,1.40
2023-02-04T11:24:15.398Z,1.50
2023-02-04T11:26:47.707Z,1.30
2023-02-04T11:29:37.996Z,1.13
2023-02-04T11:32:27.005Z,1.60
2023-02-04T11:35:08.186Z,1.43
2023-02-04T11:37:41.380Z,1.33
2023-02-04T11:40:32.834Z,1.20
2023-02-04T11:43:15.287Z,1.37
2023-02-04T11:45:46.587Z,1.20
2023-02-04T11:48:25.949Z,1.37
2023-02-04T11:51:00.593Z,1.13
2023-02-04T11:53:31.138Z,1.70
2023-02-04T11:56:05.635Z,1.87
2023-02-04T11:58:32.683Z,1.77
2023-02-04T12:01:02.819Z,1.53
2023-02-04T12:03:34.312Z,1.10
2023-02-04T12:06:04.815Z,1.30
2023-02-04T12:08:36.071Z,1.60
2023-02-04T12:11:10.525Z,1.17
2023-02-04T12:13:52.918Z,3.03
2023-02-04T12:16:19.496Z,1.40
2023-02-04T12:18:46.142Z,1.20
2023-02-04T12:21:20.710Z,1.40
2023-02-04T12:23:48.265Z,1.20
2023-02-04T12:26:19.671Z,1.20
2023-02-04T12:28:51.052Z,1.23
2023-02-04T12:31:22.293Z,1.27
2023-02-04T12:33:53.626Z,1.20
2023-02-04T12:36:26.847Z,1.67
2023-02-04T12:38:59.399Z,19.40
2023-02-04T12:41:29.929Z,4.27
2023-02-04T12:44:00.624Z,10.73
2023-02-04T12:46:30.453Z,1.87
2023-02-04T12:49:01.481Z,1.50
2023-02-04T12:51:32.492Z,1.33
2023-02-04T12:54:02.092Z,1.30
2023-02-04T12:56:37.583Z,1.20
2023-02-04T12:59:07.495Z,1.10
2023-02-04T13:01:37.796Z,1.20
2023-02-04T13:04:11.468Z,1.23
2023-02-04T13:06:41.927Z,1.23
2023-02-04T13:09:12.736Z,1.80
2023-02-04T13:11:43.427Z,1.30
2023-02-04T13:14:13.770Z,1.57
2023-02-04T13:16:44.643Z,1.30
2023-02-04T13:19:15.146Z,1.20
2023-02-04T13:21:47.792Z,1.33
2023-02-04T13:24:18.308Z,1.10
2023-02-04T13:26:49.213Z,1.37
2023-02-04T13:29:20.016Z,1.27
2023-02-04T13:31:50.358Z,1.60
2023-02-04T13:34:20.796Z,1.20
2023-02-04T13:36:51.300Z,1.40
2023-02-04T13:39:23.048Z,1.30
2023-02-04T13:41:53.572Z,1.20
2023-02-04T13:44:24.462Z,1.20
2023-02-04T13:46:55.092Z,1.20
2023-02-04T13:49:25.934Z,1.40
2023-02-04T13:51:56.044Z,1.77
2023-02-04T13:54:25.988Z,1.87
2023-02-04T13:56:57.044Z,1.73
2023-02-04T13:59:27.109Z,1.17
2023-02-04T14:01:57.843Z,3.10
2023-02-04T14:04:27.618Z,2.07
2023-02-04T14:06:59.236Z,2.30
2023-02-04T14:09:29.528Z,1.50
2023-02-04T14:12:00.125Z,1.80
2023-02-04T14:14:30.602Z,1.20
2023-02-04T14:17:00.945Z,1.53
2023-02-04T14:19:30.979Z,1.53
2023-02-04T14:22:02.123Z,1.20
2023-02-04T14:24:35.314Z,1.50
2023-02-04T14:27:07.007Z,1.60
2023-02-04T14:29:35.342Z,1.70
2023-02-04T14:32:05.839Z,1.47
2023-02-04T14:34:36.015Z,1.63
2023-02-04T14:37:06.076Z,1.37
2023-02-04T14:39:36.154Z,1.33
2023-02-04T14:42:08.137Z,1.67
2023-02-04T14:44:38.726Z,1.30
2023-02-04T14:47:08.652Z,1.17
2023-02-04T14:49:38.962Z,1.30
2023-02-04T14:52:10.706Z,1.40
2023-02-04T14:54:39.745Z,1.47
2023-02-04T14:57:11.241Z,1.30
2023-02-04T14:59:40.277Z,1.27
2023-02-04T15:02:11.075Z,1.67
2023-02-04T15:04:42.342Z,1.23
2023-02-04T15:07:12.398Z,1.07
2023-02-04T15:09:44.048Z,1.47
2023-02-04T15:12:14.586Z,1.50
2023-02-04T15:14:44.956Z,1.33
2023-02-04T15:17:16.239Z,1.17
2023-02-04T15:19:46.990Z,1.30
2023-02-04T15:22:16.882Z,1.77
2023-02-04T15:24:48.208Z,1.63
2023-02-04T15:27:19.686Z,1.50
2023-02-04T15:29:50.256Z,1.70
2023-02-04T15:32:20.506Z,1.70
2023-02-04T15:34:50.841Z,1.40
2023-02-04T15:37:21.364Z,1.60
2023-02-04T15:39:51.328Z,1.53
2023-02-04T15:42:21.837Z,1.40
2023-02-04T15:44:54.228Z,1.47
2023-02-04T15:47:23.922Z,1.43
2023-02-04T15:49:54.268Z,1.47
2023-02-04T15:52:25.824Z,1.20
2023-02-04T15:54:55.073Z,1.43
2023-02-04T15:57:25.112Z,1.30
2023-02-04T15:59:55.391Z,1.57
2023-02-04T16:02:31.380Z,1.50
2023-02-04T16:04:59.791Z,3.33
2023-02-04T16:07:29.887Z,1.73
2023-02-04T16:10:00.129Z,1.37
2023-02-04T16:12:30.176Z,1.60
2023-02-04T16:15:00.496Z,1.60
2023-02-04T16:17:31.122Z,1.50
2023-02-04T16:20:03.123Z,1.07
2023-02-04T16:22:32.992Z,1.93
2023-02-04T16:25:03.446Z,1.60
2023-02-04T16:27:33.211Z,1.30
2023-02-04T16:30:04.169Z,1.77
2023-02-04T16:32:33.880Z,1.70
2023-02-04T16:35:04.427Z,1.90
2023-02-04T16:37:37.015Z,2.17
2023-02-04T16:40:10.456Z,1.90
2023-02-04T16:42:37.528Z,2.40
2023-02-04T16:45:09.109Z,4.50
2023-02-04T16:47:39.125Z,7.60
2023-02-04T16:50:09.884Z,9.20
2023-02-04T16:52:39.958Z,12.90
2023-02-04T16:55:10.880Z,10.87
2023-02-04T16:57:42.595Z,8.90
2023-02-04T17:00:13.967Z,15.20
2023-02-04T17:02:42.854Z,8.60
2023-02-04T17:05:13.539Z,6.30
2023-02-04T17:07:44.102Z,5.67
2023-02-04T17:10:15.350Z,5.80
2023-02-04T17:12:45.408Z,5.53
2023-02-04T17:15:16.333Z,5.60
2023-02-04T17:17:46.385Z,5.77
2023-02-04T17:20:16.390Z,6.10
2023-02-04T17:22:51.424Z,6.97
2023-02-04T17:25:20.260Z,6.23
2023-02-04T17:27:51.997Z,8.50
2023-02-04T17:30:20.890Z,8.07
2023-02-04T17:32:51.336Z,7.87
2023-02-04T17:35:21.991Z,7.13
2023-02-04T17:37:53.342Z,7.40
2023-02-04T17:40:26.348Z,7.73
2023-02-04T17:42:55.728Z,7.30
2023-02-04T17:45:26.799Z,8.57
2023-02-04T17:47:58.304Z,14.70
2023-02-04T17:50:28.864Z,11.10
2023-02-04T17:52:59.277Z,8.50
2023-02-04T17:55:31.133Z,8.47
2023-02-04T17:58:15.559Z,9.00
2023-02-04T18:00:44.414Z,8.27
2023-02-04T18:03:12.922Z,7.60
2023-02-04T18:05:47.626Z,8.90
2023-02-04T18:08:25.541Z,11.70
2023-02-04T18:10:53.693Z,21.00
2023-02-04T18:13:34.169Z,22.83
2023-02-04T18:16:02.238Z,21.23
2023-02-04T18:18:36.914Z,16.93
2023-02-04T18:21:27.866Z,15.83
2023-02-04T18:24:10.569Z,22.97
2023-02-04T18:26:45.036Z,17.60
2023-02-04T18:29:21.108Z,15.37
2023-02-04T18:31:56.637Z,15.50
2023-02-04T18:34:39.616Z,15.70
2023-02-04T18:37:41.635Z,17.30
2023-02-04T18:40:27.356Z,17.30
2023-02-04T18:43:09.531Z,16.87
2023-02-04T18:45:40.710Z,14.73
2023-02-04T18:48:20.266Z,16.10
2023-02-04T18:50:53.364Z,15.07
2023-02-04T18:53:25.909Z,15.23
2023-02-04T18:55:54.456Z,15.87
2023-02-04T18:58:28.456Z,16.20
2023-02-04T19:01:00.471Z,14.80
2023-02-04T19:03:29.068Z,14.80
2023-02-04T19:06:00.845Z,19.87
2023-02-04T19:08:43.162Z,19.10
2023-02-04T19:11:24.067Z,14.60
2023-02-04T19:13:57.679Z,12.83
2023-02-04T19:16:35.908Z,12.40
2023-02-04T19:19:12.973Z,13.33
2023-02-04T19:21:49.843Z,13.17
2023-02-04T19:24:24.613Z,13.13
2023-02-04T19:26:56.674Z,14.33
2023-02-04T19:29:40.783Z,15.50
2023-02-04T19:32:28.549Z,13.20
2023-02-04T19:35:12.611Z,16.23
2023-02-04T19:37:48.390Z,15.80
2023-02-04T19:40:24.501Z,14.87
2023-02-04T19:43:22.133Z,16.70
2023-02-04T19:45:53.276Z,14.20
2023-02-04T19:48:32.100Z,13.20
2023-02-04T19:51:20.580Z,13.87
2023-02-04T19:53:51.301Z,13.53
2023-02-04T19:56:46.997Z,12.23
2023-02-04T19:59:33.412Z,13.63
2023-02-04T20:02:06.397Z,10.33
2023-02-04T20:04:42.452Z,11.93
2023-02-04T20:07:19.081Z,11.90
2023-02-04T20:09:53.949Z,12.03
2023-02-04T20:12:28.211Z,11.70
2023-02-04T20:15:17.883Z,9.77
2023-02-04T20:17:49.725Z,10.63
2023-02-04T20:20:29.269Z,12.17
2023-02-04T20:23:01.330Z,12.10
2023-02-04T20:25:37.979Z,11.43
2023-02-04T20:28:36.205Z,10.97
2023-02-04T20:31:15.585Z,12.37
2023-02-04T20:33:50.358Z,14.00
2023-02-04T20:36:39.997Z,14.23
2023-02-04T20:39:27.517Z,15.80
2023-02-04T20:42:24.194Z,14.03
2023-02-04T20:44:57.486Z,15.30
2023-02-04T20:47:28.749Z,14.70
2023-02-04T20:49:59.440Z,13.53
2023-02-04T20:53:01.619Z,13.00
2023-02-04T20:55:34.545Z,12.27
2023-02-04T20:58:11.552Z,11.63
2023-02-04T21:00:43.309Z,10.17
2023-02-04T21:03:19.382Z,12.10
2023-02-04T21:05:51.880Z,12.20
2023-02-04T21:08:34.790Z,12.33
2023-02-04T21:11:03.200Z,11.93
2023-02-04T21:13:32.799Z,14.50
2023-02-04T21:16:03.730Z,12.00
2023-02-04T21:18:34.436Z,11.33
2023-02-04T21:21:07.027Z,12.40
2023-02-04T21:23:38.555Z,11.53
2023-02-04T21:26:09.400Z,10.87
2023-02-04T21:28:39.567Z,10.27
2023-02-04T21:31:10.932Z,16.70
2023-02-04T21:33:40.073Z,11.27
2023-02-04T21:36:10.128Z,13.20
2023-02-04T21:38:41.078Z,9.33
2023-02-04T21:41:16.244Z,9.57
2023-02-04T21:43:47.275Z,7.07
2023-02-04T21:46:17.992Z,7.10
2023-02-04T21:48:47.159Z,7.60
2023-02-04T21:51:17.557Z,7.80
2023-02-04T21:53:47.691Z,7.50
2023-02-04T21:56:17.764Z,7.40
2023-02-04T21:58:49.976Z,6.90
2023-02-04T22:01:20.680Z,7.17
2023-02-04T22:03:50.662Z,8.10
2023-02-04T22:06:20.979Z,8.17
2023-02-04T22:08:51.611Z,8.47
2023-02-04T22:11:22.036Z,8.13
2023-02-04T22:13:52.271Z,7.20
2023-02-04T22:16:25.842Z,7.20
2023-02-04T22:18:56.183Z,7.27
2023-02-04T22:21:26.479Z,7.30
2023-02-04T22:23:56.220Z,6.87
2023-02-04T22:26:26.698Z,6.23
2023-02-04T22:28:56.820Z,6.13
2023-02-04T22:31:27.096Z,5.90
2023-02-04T22:33:56.989Z,6.30
2023-02-04T22:36:26.988Z,4.33
2023-02-04T22:38:56.836Z,4.80
2023-02-04T22:41:27.578Z,3.17
2023-02-04T22:44:00.807Z,2.80
2023-02-04T22:46:31.946Z,2.77
2023-02-04T22:49:05.164Z,2.10
2023-02-04T22:51:34.394Z,1.80
2023-02-04T22:54:04.813Z,2.00
2023-02-04T22:56:34.442Z,1.53
2023-02-04T22:59:04.596Z,1.30
2023-02-04T23:01:36.586Z,1.30
2023-02-04T23:04:06.410Z,1.27
2023-02-04T23:06:37.075Z,1.20
2023-02-04T23:09:07.172Z,1.40
2023-02-04T23:11:38.285Z,1.13
2023-02-04T23:14:08.588Z,0.93
2023-02-04T23:16:39.092Z,1.20
2023-02-04T23:19:14.091Z,1.10
2023-02-04T23:21:44.382Z,0.90
2023-02-04T23:24:23.436Z,1.27
2023-02-04T23:26:57.902Z,1.40
2023-02-04T23:29:31.459Z,1.60
2023-02-04T23:31:58.233Z,2.07
2023-02-04T23:34:26.351Z,1.80
2023-02-04T23:36:56.990Z,2.40
2023-02-04T23:39:27.474Z,3.07
2023-02-04T23:41:57.537Z,3.40
2023-02-04T23:44:31.440Z,3.20
2023-02-04T23:47:02.184Z,4.20
2023-02-04T23:49:32.138Z,3.90
2023-02-04T23:52:02.711Z,4.53
2023-02-04T23:54:33.521Z,4.23
2023-02-04T23:57:03.551Z,4.40
2023-02-04T23:59:35.510Z,5.00
